sensor_id;sensor_type;location;lat;lon;timestamp;temperature;humidity
55777;DHT22;54079;44.540;18.784;2022-12-18T00:00:46;5.30;74.40
55777;DHT22;54079;44.540;18.784;2022-12-18T00:03:15;5.40;74.20
55777;DHT22;54079;44.540;18.784;2022-12-18T00:05:51;5.50;74.50
55777;DHT22;54079;44.540;18.784;2022-12-18T00:08:18;5.50;75.20
55777;DHT22;54079;44.540;18.784;2022-12-18T00:10:46;5.50;75.60
55777;DHT22;54079;44.540;18.784;2022-12-18T00:13:12;5.40;74.40
55777;DHT22;54079;44.540;18.784;2022-12-18T00:15:39;5.40;74.10
55777;DHT22;54079;44.540;18.784;2022-12-18T00:18:05;5.60;73.70
55777;DHT22;54079;44.540;18.784;2022-12-18T00:20:35;5.60;74.60
55777;DHT22;54079;44.540;18.784;2022-12-18T00:23:01;5.60;74.90
55777;DHT22;54079;44.540;18.784;2022-12-18T00:25:26;5.50;74.50
55777;DHT22;54079;44.540;18.784;2022-12-18T00:27:52;5.40;74.60
55777;DHT22;54079;44.540;18.784;2022-12-18T00:30:19;5.50;74.30
55777;DHT22;54079;44.540;18.784;2022-12-18T00:32:44;5.60;74.10
55777;DHT22;54079;44.540;18.784;2022-12-18T00:35:10;5.60;74.40
55777;DHT22;54079;44.540;18.784;2022-12-18T00:37:36;5.60;74.70
55777;DHT22;54079;44.540;18.784;2022-12-18T00:40:03;5.70;73.90
55777;DHT22;54079;44.540;18.784;2022-12-18T00:42:29;5.50;74.70
55777;DHT22;54079;44.540;18.784;2022-12-18T00:45:13;5.60;75.10
55777;DHT22;54079;44.540;18.784;2022-12-18T00:47:39;5.50;76.40
55777;DHT22;54079;44.540;18.784;2022-12-18T00:50:06;5.60;75.20
55777;DHT22;54079;44.540;18.784;2022-12-18T00:52:32;5.60;74.90
55777;DHT22;54079;44.540;18.784;2022-12-18T00:54:58;5.60;75.50
55777;DHT22;54079;44.540;18.784;2022-12-18T00:57:23;5.50;75.20
55777;DHT22;54079;44.540;18.784;2022-12-18T00:59:49;5.40;76.20
55777;DHT22;54079;44.540;18.784;2022-12-18T01:02:15;5.30;76.90
55777;DHT22;54079;44.540;18.784;2022-12-18T01:04:41;5.20;77.10
55777;DHT22;54079;44.540;18.784;2022-12-18T01:07:07;5.20;76.20
55777;DHT22;54079;44.540;18.784;2022-12-18T01:09:33;5.10;76.20
55777;DHT22;54079;44.540;18.784;2022-12-18T01:12:00;5.10;76.10
55777;DHT22;54079;44.540;18.784;2022-12-18T01:14:26;5.10;75.90
55777;DHT22;54079;44.540;18.784;2022-12-18T01:16:52;5.10;76.30
55777;DHT22;54079;44.540;18.784;2022-12-18T01:19:18;5.10;76.00
55777;DHT22;54079;44.540;18.784;2022-12-18T01:21:44;5.10;75.80
55777;DHT22;54079;44.540;18.784;2022-12-18T01:24:11;5.10;75.90
55777;DHT22;54079;44.540;18.784;2022-12-18T01:26:37;4.90;77.10
55777;DHT22;54079;44.540;18.784;2022-12-18T01:29:03;4.90;79.20
55777;DHT22;54079;44.540;18.784;2022-12-18T01:31:32;5.10;79.50
55777;DHT22;54079;44.540;18.784;2022-12-18T01:34:01;5.10;79.70
55777;DHT22;54079;44.540;18.784;2022-12-18T01:36:30;5.20;79.80
55777;DHT22;54079;44.540;18.784;2022-12-18T01:39:00;5.20;79.20
55777;DHT22;54079;44.540;18.784;2022-12-18T01:41:28;5.20;77.60
55777;DHT22;54079;44.540;18.784;2022-12-18T01:49:47;5.30;77.80
55777;DHT22;54079;44.540;18.784;2022-12-18T01:52:14;5.20;78.40
55777;DHT22;54079;44.540;18.784;2022-12-18T01:54:40;5.10;78.50
55777;DHT22;54079;44.540;18.784;2022-12-18T01:57:07;5.10;78.50
55777;DHT22;54079;44.540;18.784;2022-12-18T01:59:33;5.00;78.00
55777;DHT22;54079;44.540;18.784;2022-12-18T02:02:01;5.20;80.00
55777;DHT22;54079;44.540;18.784;2022-12-18T02:04:28;5.00;79.70
55777;DHT22;54079;44.540;18.784;2022-12-18T02:09:35;5.00;77.40
55777;DHT22;54079;44.540;18.784;2022-12-18T02:12:43;4.90;77.50
55777;DHT22;54079;44.540;18.784;2022-12-18T02:15:22;4.70;78.40
55777;DHT22;54079;44.540;18.784;2022-12-18T02:17:58;4.80;77.00
55777;DHT22;54079;44.540;18.784;2022-12-18T02:20:39;4.70;77.80
55777;DHT22;54079;44.540;18.784;2022-12-18T02:23:33;4.50;78.10
55777;DHT22;54079;44.540;18.784;2022-12-18T02:26:30;4.50;77.80
55777;DHT22;54079;44.540;18.784;2022-12-18T02:29:00;4.30;77.40
55777;DHT22;54079;44.540;18.784;2022-12-18T02:31:31;4.20;79.50
55777;DHT22;54079;44.540;18.784;2022-12-18T02:34:01;4.10;80.10
55777;DHT22;54079;44.540;18.784;2022-12-18T02:36:29;3.90;79.90
55777;DHT22;54079;44.540;18.784;2022-12-18T02:38:58;3.90;81.50
55777;DHT22;54079;44.540;18.784;2022-12-18T02:41:25;4.00;81.90
55777;DHT22;54079;44.540;18.784;2022-12-18T02:44:07;4.30;81.10
55777;DHT22;54079;44.540;18.784;2022-12-18T02:46:40;4.40;82.10
55777;DHT22;54079;44.540;18.784;2022-12-18T02:52:01;4.20;82.30
55777;DHT22;54079;44.540;18.784;2022-12-18T03:00:22;4.40;83.70
55777;DHT22;54079;44.540;18.784;2022-12-18T03:05:53;4.40;80.80
55777;DHT22;54079;44.540;18.784;2022-12-18T03:08:39;4.20;80.60
55777;DHT22;54079;44.540;18.784;2022-12-18T03:11:09;4.00;82.00
55777;DHT22;54079;44.540;18.784;2022-12-18T03:13:44;4.20;82.10
55777;DHT22;54079;44.540;18.784;2022-12-18T03:16:15;4.10;82.20
55777;DHT22;54079;44.540;18.784;2022-12-18T03:18:51;4.10;81.80
55777;DHT22;54079;44.540;18.784;2022-12-18T03:21:20;4.20;81.30
55777;DHT22;54079;44.540;18.784;2022-12-18T03:23:49;4.20;82.40
55777;DHT22;54079;44.540;18.784;2022-12-18T03:26:19;4.10;83.90
55777;DHT22;54079;44.540;18.784;2022-12-18T03:28:52;4.10;83.20
55777;DHT22;54079;44.540;18.784;2022-12-18T03:31:21;4.10;83.10
55777;DHT22;54079;44.540;18.784;2022-12-18T03:34:20;4.00;82.40
55777;DHT22;54079;44.540;18.784;2022-12-18T03:36:47;3.90;82.60
55777;DHT22;54079;44.540;18.784;2022-12-18T03:39:13;3.80;83.60
55777;DHT22;54079;44.540;18.784;2022-12-18T03:44:53;4.00;82.50
55777;DHT22;54079;44.540;18.784;2022-12-18T03:55:20;4.20;82.20
55777;DHT22;54079;44.540;18.784;2022-12-18T03:57:48;4.10;82.80
55777;DHT22;54079;44.540;18.784;2022-12-18T04:00:17;4.00;81.20
55777;DHT22;54079;44.540;18.784;2022-12-18T04:02:47;4.00;81.80
55777;DHT22;54079;44.540;18.784;2022-12-18T04:05:15;3.90;81.50
55777;DHT22;54079;44.540;18.784;2022-12-18T04:07:41;4.00;82.50
55777;DHT22;54079;44.540;18.784;2022-12-18T04:10:09;3.90;84.30
55777;DHT22;54079;44.540;18.784;2022-12-18T04:12:37;3.90;83.10
55777;DHT22;54079;44.540;18.784;2022-12-18T04:15:03;3.90;82.10
55777;DHT22;54079;44.540;18.784;2022-12-18T04:17:29;3.90;81.80
55777;DHT22;54079;44.540;18.784;2022-12-18T04:19:55;4.10;81.00
55777;DHT22;54079;44.540;18.784;2022-12-18T04:22:21;4.10;80.90
55777;DHT22;54079;44.540;18.784;2022-12-18T04:24:47;4.20;81.00
55777;DHT22;54079;44.540;18.784;2022-12-18T04:27:13;4.50;79.90
55777;DHT22;54079;44.540;18.784;2022-12-18T04:29:39;4.50;80.00
55777;DHT22;54079;44.540;18.784;2022-12-18T04:32:05;4.50;79.80
55777;DHT22;54079;44.540;18.784;2022-12-18T04:34:31;4.50;80.30
55777;DHT22;54079;44.540;18.784;2022-12-18T04:36:57;4.50;79.80
55777;DHT22;54079;44.540;18.784;2022-12-18T04:39:23;4.40;79.80
55777;DHT22;54079;44.540;18.784;2022-12-18T04:41:49;4.30;80.00
55777;DHT22;54079;44.540;18.784;2022-12-18T04:44:14;4.40;80.10
55777;DHT22;54079;44.540;18.784;2022-12-18T04:46:40;4.40;81.30
55777;DHT22;54079;44.540;18.784;2022-12-18T04:49:06;4.50;80.00
55777;DHT22;54079;44.540;18.784;2022-12-18T04:51:32;4.50;80.30
55777;DHT22;54079;44.540;18.784;2022-12-18T04:53:58;4.60;80.10
55777;DHT22;54079;44.540;18.784;2022-12-18T04:56:24;4.60;80.20
55777;DHT22;54079;44.540;18.784;2022-12-18T04:58:50;4.80;79.90
55777;DHT22;54079;44.540;18.784;2022-12-18T05:01:17;4.80;80.40
55777;DHT22;54079;44.540;18.784;2022-12-18T05:03:43;4.80;80.20
55777;DHT22;54079;44.540;18.784;2022-12-18T05:06:09;4.80;80.50
55777;DHT22;54079;44.540;18.784;2022-12-18T05:08:35;4.80;80.00
55777;DHT22;54079;44.540;18.784;2022-12-18T05:11:07;4.80;80.10
55777;DHT22;54079;44.540;18.784;2022-12-18T05:13:34;4.80;80.10
55777;DHT22;54079;44.540;18.784;2022-12-18T05:16:00;4.70;80.60
55777;DHT22;54079;44.540;18.784;2022-12-18T05:18:27;4.80;80.70
55777;DHT22;54079;44.540;18.784;2022-12-18T05:20:54;4.80;79.70
55777;DHT22;54079;44.540;18.784;2022-12-18T05:23:21;4.80;80.20
55777;DHT22;54079;44.540;18.784;2022-12-18T05:25:53;4.70;80.50
55777;DHT22;54079;44.540;18.784;2022-12-18T05:28:20;4.70;80.00
55777;DHT22;54079;44.540;18.784;2022-12-18T05:30:55;4.50;80.90
55777;DHT22;54079;44.540;18.784;2022-12-18T05:33:23;4.40;81.20
55777;DHT22;54079;44.540;18.784;2022-12-18T05:35:57;4.20;81.10
55777;DHT22;54079;44.540;18.784;2022-12-18T05:38:25;3.90;82.20
55777;DHT22;54079;44.540;18.784;2022-12-18T05:40:51;4.00;83.60
55777;DHT22;54079;44.540;18.784;2022-12-18T05:43:18;4.10;81.70
55777;DHT22;54079;44.540;18.784;2022-12-18T05:45:45;3.80;82.30
55777;DHT22;54079;44.540;18.784;2022-12-18T05:48:12;3.60;81.80
55777;DHT22;54079;44.540;18.784;2022-12-18T05:50:40;3.80;82.50
55777;DHT22;54079;44.540;18.784;2022-12-18T05:53:07;4.00;81.90
55777;DHT22;54079;44.540;18.784;2022-12-18T05:55:34;4.00;81.10
55777;DHT22;54079;44.540;18.784;2022-12-18T05:58:00;3.80;81.40
55777;DHT22;54079;44.540;18.784;2022-12-18T06:00:26;3.80;81.90
55777;DHT22;54079;44.540;18.784;2022-12-18T06:02:52;3.90;81.70
55777;DHT22;54079;44.540;18.784;2022-12-18T06:05:18;3.90;81.40
55777;DHT22;54079;44.540;18.784;2022-12-18T06:07:44;3.80;80.90
55777;DHT22;54079;44.540;18.784;2022-12-18T06:10:10;3.90;80.70
55777;DHT22;54079;44.540;18.784;2022-12-18T06:12:37;3.60;81.70
55777;DHT22;54079;44.540;18.784;2022-12-18T06:15:03;3.70;81.70
55777;DHT22;54079;44.540;18.784;2022-12-18T06:17:30;3.70;81.10
55777;DHT22;54079;44.540;18.784;2022-12-18T06:19:57;3.40;80.90
55777;DHT22;54079;44.540;18.784;2022-12-18T06:22:23;3.10;82.50
55777;DHT22;54079;44.540;18.784;2022-12-18T06:24:49;3.00;82.60
55777;DHT22;54079;44.540;18.784;2022-12-18T06:27:15;3.10;83.00
55777;DHT22;54079;44.540;18.784;2022-12-18T06:29:41;3.20;82.10
55777;DHT22;54079;44.540;18.784;2022-12-18T06:32:07;3.10;82.00
55777;DHT22;54079;44.540;18.784;2022-12-18T06:34:33;3.10;82.90
55777;DHT22;54079;44.540;18.784;2022-12-18T06:36:59;3.20;82.40
55777;DHT22;54079;44.540;18.784;2022-12-18T06:39:27;3.30;82.80
55777;DHT22;54079;44.540;18.784;2022-12-18T06:41:53;3.40;81.70
55777;DHT22;54079;44.540;18.784;2022-12-18T06:44:19;3.40;81.90
55777;DHT22;54079;44.540;18.784;2022-12-18T06:46:45;3.30;82.50
55777;DHT22;54079;44.540;18.784;2022-12-18T06:49:11;3.30;82.20
55777;DHT22;54079;44.540;18.784;2022-12-18T06:51:37;3.30;82.40
55777;DHT22;54079;44.540;18.784;2022-12-18T06:54:03;3.30;82.30
55777;DHT22;54079;44.540;18.784;2022-12-18T06:56:29;3.20;82.10
55777;DHT22;54079;44.540;18.784;2022-12-18T06:58:55;3.20;82.00
55777;DHT22;54079;44.540;18.784;2022-12-18T07:01:22;3.30;82.20
55777;DHT22;54079;44.540;18.784;2022-12-18T07:03:52;3.50;82.40
55777;DHT22;54079;44.540;18.784;2022-12-18T07:06:22;3.40;81.50
55777;DHT22;54079;44.540;18.784;2022-12-18T07:08:48;3.40;81.60
55777;DHT22;54079;44.540;18.784;2022-12-18T07:11:15;3.30;81.90
55777;DHT22;54079;44.540;18.784;2022-12-18T07:13:41;3.30;82.00
55777;DHT22;54079;44.540;18.784;2022-12-18T07:16:10;3.20;82.20
55777;DHT22;54079;44.540;18.784;2022-12-18T07:18:36;3.10;82.50
55777;DHT22;54079;44.540;18.784;2022-12-18T07:21:13;3.20;82.30
55777;DHT22;54079;44.540;18.784;2022-12-18T07:23:40;3.40;82.70
55777;DHT22;54079;44.540;18.784;2022-12-18T07:26:08;3.40;82.50
55777;DHT22;54079;44.540;18.784;2022-12-18T07:28:36;3.50;82.00
55777;DHT22;54079;44.540;18.784;2022-12-18T07:31:06;3.60;81.80
55777;DHT22;54079;44.540;18.784;2022-12-18T07:33:33;3.60;81.10
55777;DHT22;54079;44.540;18.784;2022-12-18T07:36:07;3.50;81.00
55777;DHT22;54079;44.540;18.784;2022-12-18T07:38:34;3.20;81.40
55777;DHT22;54079;44.540;18.784;2022-12-18T07:41:05;3.10;81.60
55777;DHT22;54079;44.540;18.784;2022-12-18T07:43:31;3.10;81.90
55777;DHT22;54079;44.540;18.784;2022-12-18T07:45:57;2.90;82.60
55777;DHT22;54079;44.540;18.784;2022-12-18T07:48:23;3.00;82.80
55777;DHT22;54079;44.540;18.784;2022-12-18T07:50:49;3.10;82.00
55777;DHT22;54079;44.540;18.784;2022-12-18T07:53:15;3.00;81.40
55777;DHT22;54079;44.540;18.784;2022-12-18T07:55:42;2.90;82.20
55777;DHT22;54079;44.540;18.784;2022-12-18T07:58:08;3.00;82.20
55777;DHT22;54079;44.540;18.784;2022-12-18T08:00:34;2.90;82.50
55777;DHT22;54079;44.540;18.784;2022-12-18T08:03:01;3.00;82.60
55777;DHT22;54079;44.540;18.784;2022-12-18T08:05:27;3.00;81.90
55777;DHT22;54079;44.540;18.784;2022-12-18T08:07:53;3.00;81.40
55777;DHT22;54079;44.540;18.784;2022-12-18T08:10:20;2.70;81.70
55777;DHT22;54079;44.540;18.784;2022-12-18T08:12:49;2.60;82.50
55777;DHT22;54079;44.540;18.784;2022-12-18T08:15:15;2.50;82.70
55777;DHT22;54079;44.540;18.784;2022-12-18T08:17:41;2.30;82.90
55777;DHT22;54079;44.540;18.784;2022-12-18T08:20:07;2.20;83.30
55777;DHT22;54079;44.540;18.784;2022-12-18T08:22:35;2.20;83.70
55777;DHT22;54079;44.540;18.784;2022-12-18T08:25:02;2.30;83.90
55777;DHT22;54079;44.540;18.784;2022-12-18T08:27:27;2.40;83.40
55777;DHT22;54079;44.540;18.784;2022-12-18T08:29:53;2.60;82.80
55777;DHT22;54079;44.540;18.784;2022-12-18T08:32:19;2.60;81.50
55777;DHT22;54079;44.540;18.784;2022-12-18T08:34:45;2.60;82.30
55777;DHT22;54079;44.540;18.784;2022-12-18T08:37:12;3.10;80.90
55777;DHT22;54079;44.540;18.784;2022-12-18T08:39:38;3.90;78.40
55777;DHT22;54079;44.540;18.784;2022-12-18T08:42:04;5.00;75.80
55777;DHT22;54079;44.540;18.784;2022-12-18T08:44:48;6.20;72.30
55777;DHT22;54079;44.540;18.784;2022-12-18T08:47:14;7.20;67.90
55777;DHT22;54079;44.540;18.784;2022-12-18T08:49:40;7.80;66.60
55777;DHT22;54079;44.540;18.784;2022-12-18T08:52:06;8.70;64.60
55777;DHT22;54079;44.540;18.784;2022-12-18T08:54:32;9.50;62.80
55777;DHT22;54079;44.540;18.784;2022-12-18T08:56:58;9.70;59.70
55777;DHT22;54079;44.540;18.784;2022-12-18T08:59:24;9.80;59.00
55777;DHT22;54079;44.540;18.784;2022-12-18T09:01:50;10.00;58.50
55777;DHT22;54079;44.540;18.784;2022-12-18T09:04:16;10.50;58.30
55777;DHT22;54079;44.540;18.784;2022-12-18T09:06:42;10.80;57.90
55777;DHT22;54079;44.540;18.784;2022-12-18T09:09:09;11.10;57.50
55777;DHT22;54079;44.540;18.784;2022-12-18T09:11:36;10.90;58.50
55777;DHT22;54079;44.540;18.784;2022-12-18T09:14:02;10.80;59.00
55777;DHT22;54079;44.540;18.784;2022-12-18T09:16:29;11.20;56.80
55777;DHT22;54079;44.540;18.784;2022-12-18T09:18:55;11.30;56.50
55777;DHT22;54079;44.540;18.784;2022-12-18T09:21:26;10.60;57.00
55777;DHT22;54079;44.540;18.784;2022-12-18T09:23:54;10.40;58.00
55777;DHT22;54079;44.540;18.784;2022-12-18T09:26:21;9.60;57.80
55777;DHT22;54079;44.540;18.784;2022-12-18T09:28:48;8.70;60.00
55777;DHT22;54079;44.540;18.784;2022-12-18T09:31:16;8.40;60.50
55777;DHT22;54079;44.540;18.784;2022-12-18T09:33:42;8.10;61.90
55777;DHT22;54079;44.540;18.784;2022-12-18T09:36:09;8.10;62.90
55777;DHT22;54079;44.540;18.784;2022-12-18T09:38:36;7.90;62.10
55777;DHT22;54079;44.540;18.784;2022-12-18T09:43:53;7.70;65.10
55777;DHT22;54079;44.540;18.784;2022-12-18T09:46:31;7.90;66.20
55777;DHT22;54079;44.540;18.784;2022-12-18T09:49:05;7.80;65.00
55777;DHT22;54079;44.540;18.784;2022-12-18T09:51:47;8.00;62.50
55777;DHT22;54079;44.540;18.784;2022-12-18T09:54:20;7.70;62.40
55777;DHT22;54079;44.540;18.784;2022-12-18T09:56:47;7.70;63.40
55777;DHT22;54079;44.540;18.784;2022-12-18T09:59:24;7.90;64.30
55777;DHT22;54079;44.540;18.784;2022-12-18T10:01:51;7.90;64.40
55777;DHT22;54079;44.540;18.784;2022-12-18T10:04:16;7.70;64.80
55777;DHT22;54079;44.540;18.784;2022-12-18T10:06:54;7.80;65.10
55777;DHT22;54079;44.540;18.784;2022-12-18T10:12:17;7.50;64.50
55777;DHT22;54079;44.540;18.784;2022-12-18T10:17:51;7.00;65.70
55777;DHT22;54079;44.540;18.784;2022-12-18T10:20:24;6.80;66.20
55777;DHT22;54079;44.540;18.784;2022-12-18T10:28:14;6.40;69.20
55777;DHT22;54079;44.540;18.784;2022-12-18T10:30:41;6.30;70.70
55777;DHT22;54079;44.540;18.784;2022-12-18T10:33:16;6.30;70.90
55777;DHT22;54079;44.540;18.784;2022-12-18T10:35:42;6.10;70.90
55777;DHT22;54079;44.540;18.784;2022-12-18T10:44:20;5.80;71.40
55777;DHT22;54079;44.540;18.784;2022-12-18T10:46:54;5.70;71.90
55777;DHT22;54079;44.540;18.784;2022-12-18T10:49:27;5.80;71.90
55777;DHT22;54079;44.540;18.784;2022-12-18T10:57:39;5.70;73.90
55777;DHT22;54079;44.540;18.784;2022-12-18T11:00:24;5.70;73.50
55777;DHT22;54079;44.540;18.784;2022-12-18T11:02:50;5.90;73.40
55777;DHT22;54079;44.540;18.784;2022-12-18T11:05:29;5.80;72.50
55777;DHT22;54079;44.540;18.784;2022-12-18T11:07:57;6.00;70.60
55777;DHT22;54079;44.540;18.784;2022-12-18T11:10:36;5.90;72.00
55777;DHT22;54079;44.540;18.784;2022-12-18T11:13:11;6.00;71.90
55777;DHT22;54079;44.540;18.784;2022-12-18T11:15:40;6.10;72.50
55777;DHT22;54079;44.540;18.784;2022-12-18T11:18:35;6.30;70.80
55777;DHT22;54079;44.540;18.784;2022-12-18T11:21:09;6.30;73.00
55777;DHT22;54079;44.540;18.784;2022-12-18T11:23:43;6.30;71.80
55777;DHT22;54079;44.540;18.784;2022-12-18T11:26:10;6.40;71.50
55777;DHT22;54079;44.540;18.784;2022-12-18T11:29:06;6.30;71.80
55777;DHT22;54079;44.540;18.784;2022-12-18T11:31:33;6.40;70.10
55777;DHT22;54079;44.540;18.784;2022-12-18T11:34:16;6.40;69.80
55777;DHT22;54079;44.540;18.784;2022-12-18T11:36:46;6.40;69.60
55777;DHT22;54079;44.540;18.784;2022-12-18T11:39:40;6.50;70.00
55777;DHT22;54079;44.540;18.784;2022-12-18T11:44:59;6.50;67.20
55777;DHT22;54079;44.540;18.784;2022-12-18T11:50:18;6.50;69.10
55777;DHT22;54079;44.540;18.784;2022-12-18T11:52:44;6.60;68.20
55777;DHT22;54079;44.540;18.784;2022-12-18T11:55:12;6.60;70.70
55777;DHT22;54079;44.540;18.784;2022-12-18T12:00:19;6.60;68.70
55777;DHT22;54079;44.540;18.784;2022-12-18T12:05:43;6.60;67.90
55777;DHT22;54079;44.540;18.784;2022-12-18T12:08:59;6.60;68.60
55777;DHT22;54079;44.540;18.784;2022-12-18T12:14:13;6.70;67.90
55777;DHT22;54079;44.540;18.784;2022-12-18T12:27:43;6.70;69.60
55777;DHT22;54079;44.540;18.784;2022-12-18T12:33:12;6.70;68.70
55777;DHT22;54079;44.540;18.784;2022-12-18T12:38:43;6.70;69.00
55777;DHT22;54079;44.540;18.784;2022-12-18T12:41:14;6.60;68.70
55777;DHT22;54079;44.540;18.784;2022-12-18T12:44:04;6.60;67.60
55777;DHT22;54079;44.540;18.784;2022-12-18T12:46:33;6.60;67.90
55777;DHT22;54079;44.540;18.784;2022-12-18T12:49:26;6.60;68.80
55777;DHT22;54079;44.540;18.784;2022-12-18T12:51:56;6.60;69.00
55777;DHT22;54079;44.540;18.784;2022-12-18T12:54:34;6.70;68.90
55777;DHT22;54079;44.540;18.784;2022-12-18T12:57:15;6.70;68.40
55777;DHT22;54079;44.540;18.784;2022-12-18T13:08:27;6.90;68.70
55777;DHT22;54079;44.540;18.784;2022-12-18T13:10:59;6.90;67.50
55777;DHT22;54079;44.540;18.784;2022-12-18T13:13:55;6.90;68.60
55777;DHT22;54079;44.540;18.784;2022-12-18T13:16:25;6.90;68.10
55777;DHT22;54079;44.540;18.784;2022-12-18T13:18:56;6.90;68.50
55777;DHT22;54079;44.540;18.784;2022-12-18T13:21:32;6.90;67.20
55777;DHT22;54079;44.540;18.784;2022-12-18T13:24:26;7.00;67.30
55777;DHT22;54079;44.540;18.784;2022-12-18T13:26:53;7.10;68.00
55777;DHT22;54079;44.540;18.784;2022-12-18T13:29:51;7.10;68.20
55777;DHT22;54079;44.540;18.784;2022-12-18T13:32:22;7.10;67.90
55777;DHT22;54079;44.540;18.784;2022-12-18T13:34:59;7.10;68.10
55777;DHT22;54079;44.540;18.784;2022-12-18T13:37:51;6.70;69.80
55777;DHT22;54079;44.540;18.784;2022-12-18T13:48:28;6.50;71.30
55777;DHT22;54079;44.540;18.784;2022-12-18T13:51:05;6.20;71.80
55777;DHT22;54079;44.540;18.784;2022-12-18T13:53:52;6.10;73.50
55777;DHT22;54079;44.540;18.784;2022-12-18T13:56:26;5.90;72.00
55777;DHT22;54079;44.540;18.784;2022-12-18T13:59:26;5.90;73.70
55777;DHT22;54079;44.540;18.784;2022-12-18T14:01:57;6.10;74.20
55777;DHT22;54079;44.540;18.784;2022-12-18T14:06:53;6.10;73.40
55777;DHT22;54079;44.540;18.784;2022-12-18T14:09:27;6.00;74.20
55777;DHT22;54079;44.540;18.784;2022-12-18T14:11:54;6.00;73.80
55777;DHT22;54079;44.540;18.784;2022-12-18T14:14:45;5.80;73.60
55777;DHT22;54079;44.540;18.784;2022-12-18T14:17:13;5.60;74.00
55777;DHT22;54079;44.540;18.784;2022-12-18T14:19:48;5.40;74.50
55777;DHT22;54079;44.540;18.784;2022-12-18T14:22:20;5.10;74.90
55777;DHT22;54079;44.540;18.784;2022-12-18T14:24:47;4.80;75.80
55777;DHT22;54079;44.540;18.784;2022-12-18T14:27:29;4.90;76.50
55777;DHT22;54079;44.540;18.784;2022-12-18T14:29:55;4.90;76.30
55777;DHT22;54079;44.540;18.784;2022-12-18T14:32:21;4.90;77.20
55777;DHT22;54079;44.540;18.784;2022-12-18T14:34:52;5.00;77.50
55777;DHT22;54079;44.540;18.784;2022-12-18T14:37:24;5.00;77.00
55777;DHT22;54079;44.540;18.784;2022-12-18T14:39:58;4.60;76.50
55777;DHT22;54079;44.540;18.784;2022-12-18T14:42:26;4.50;78.40
55777;DHT22;54079;44.540;18.784;2022-12-18T14:47:57;4.10;78.30
55777;DHT22;54079;44.540;18.784;2022-12-18T14:50:23;4.00;78.40
55777;DHT22;54079;44.540;18.784;2022-12-18T14:52:50;3.80;79.40
55777;DHT22;54079;44.540;18.784;2022-12-18T14:55:20;3.80;80.70
55777;DHT22;54079;44.540;18.784;2022-12-18T14:57:51;3.60;80.20
55777;DHT22;54079;44.540;18.784;2022-12-18T15:00:21;3.60;80.00
55777;DHT22;54079;44.540;18.784;2022-12-18T15:02:50;3.50;80.80
55777;DHT22;54079;44.540;18.784;2022-12-18T15:05:29;3.40;80.70
55777;DHT22;54079;44.540;18.784;2022-12-18T15:07:58;3.30;81.00
55777;DHT22;54079;44.540;18.784;2022-12-18T15:10:27;3.10;81.80
55777;DHT22;54079;44.540;18.784;2022-12-18T15:20:27;2.90;82.80
55777;DHT22;54079;44.540;18.784;2022-12-18T15:22:57;2.80;82.90
55777;DHT22;54079;44.540;18.784;2022-12-18T15:27:53;2.60;83.70
55777;DHT22;54079;44.540;18.784;2022-12-18T15:30:21;2.50;83.90
55777;DHT22;54079;44.540;18.784;2022-12-18T15:32:48;2.40;84.30
55777;DHT22;54079;44.540;18.784;2022-12-18T15:35:18;2.30;84.60
55777;DHT22;54079;44.540;18.784;2022-12-18T15:37:44;2.40;84.80
55777;DHT22;54079;44.540;18.784;2022-12-18T15:40:22;2.30;85.10
55777;DHT22;54079;44.540;18.784;2022-12-18T15:42:49;2.20;85.50
55777;DHT22;54079;44.540;18.784;2022-12-18T15:45:34;2.00;85.90
55777;DHT22;54079;44.540;18.784;2022-12-18T15:48:00;2.00;86.60
55777;DHT22;54079;44.540;18.784;2022-12-18T15:50:26;2.10;86.10
55777;DHT22;54079;44.540;18.784;2022-12-18T15:52:53;2.00;86.30
55777;DHT22;54079;44.540;18.784;2022-12-18T15:55:22;2.00;86.50
55777;DHT22;54079;44.540;18.784;2022-12-18T15:58:08;2.00;86.80
55777;DHT22;54079;44.540;18.784;2022-12-18T16:00:35;1.80;87.30
55777;DHT22;54079;44.540;18.784;2022-12-18T16:03:02;1.90;88.10
55777;DHT22;54079;44.540;18.784;2022-12-18T16:05:29;2.10;88.70
55777;DHT22;54079;44.540;18.784;2022-12-18T16:07:55;2.20;87.00
55777;DHT22;54079;44.540;18.784;2022-12-18T16:10:20;2.20;86.40
55777;DHT22;54079;44.540;18.784;2022-12-18T16:12:47;2.20;86.90
55777;DHT22;54079;44.540;18.784;2022-12-18T16:15:14;2.10;86.50
55777;DHT22;54079;44.540;18.784;2022-12-18T16:17:43;2.10;86.60
55777;DHT22;54079;44.540;18.784;2022-12-18T16:20:20;1.90;87.20
55777;DHT22;54079;44.540;18.784;2022-12-18T16:22:47;1.80;87.60
55777;DHT22;54079;44.540;18.784;2022-12-18T16:25:19;1.80;88.20
55777;DHT22;54079;44.540;18.784;2022-12-18T16:27:45;1.80;88.20
55777;DHT22;54079;44.540;18.784;2022-12-18T16:30:15;1.70;88.70
55777;DHT22;54079;44.540;18.784;2022-12-18T16:32:41;1.70;89.10
55777;DHT22;54079;44.540;18.784;2022-12-18T16:35:10;1.50;89.40
55777;DHT22;54079;44.540;18.784;2022-12-18T16:37:37;1.60;90.20
55777;DHT22;54079;44.540;18.784;2022-12-18T16:40:03;1.70;89.10
55777;DHT22;54079;44.540;18.784;2022-12-18T16:42:29;1.60;89.60
55777;DHT22;54079;44.540;18.784;2022-12-18T16:44:55;1.50;90.10
55777;DHT22;54079;44.540;18.784;2022-12-18T16:47:21;1.40;90.60
55777;DHT22;54079;44.540;18.784;2022-12-18T16:49:47;1.30;90.90
55777;DHT22;54079;44.540;18.784;2022-12-18T16:52:16;1.30;91.20
55777;DHT22;54079;44.540;18.784;2022-12-18T16:54:42;1.30;91.30
55777;DHT22;54079;44.540;18.784;2022-12-18T16:57:13;1.30;91.20
55777;DHT22;54079;44.540;18.784;2022-12-18T16:59:39;1.30;91.40
55777;DHT22;54079;44.540;18.784;2022-12-18T17:02:08;1.30;91.50
55777;DHT22;54079;44.540;18.784;2022-12-18T17:04:37;1.40;91.30
55777;DHT22;54079;44.540;18.784;2022-12-18T17:07:03;1.40;91.70
55777;DHT22;54079;44.540;18.784;2022-12-18T17:09:29;1.30;91.60
55777;DHT22;54079;44.540;18.784;2022-12-18T17:11:55;1.40;91.50
55777;DHT22;54079;44.540;18.784;2022-12-18T17:14:24;1.50;92.20
55777;DHT22;54079;44.540;18.784;2022-12-18T17:16:52;1.50;91.30
55777;DHT22;54079;44.540;18.784;2022-12-18T17:19:18;1.30;91.60
55777;DHT22;54079;44.540;18.784;2022-12-18T17:21:47;1.30;91.70
55777;DHT22;54079;44.540;18.784;2022-12-18T17:24:13;1.20;92.20
55777;DHT22;54079;44.540;18.784;2022-12-18T17:26:39;1.20;92.50
55777;DHT22;54079;44.540;18.784;2022-12-18T17:29:04;1.20;92.20
55777;DHT22;54079;44.540;18.784;2022-12-18T17:31:31;1.30;92.10
55777;DHT22;54079;44.540;18.784;2022-12-18T17:33:58;1.20;92.30
55777;DHT22;54079;44.540;18.784;2022-12-18T17:36:25;1.10;92.40
55777;DHT22;54079;44.540;18.784;2022-12-18T17:38:58;1.10;92.80
55777;DHT22;54079;44.540;18.784;2022-12-18T17:41:25;1.10;92.90
55777;DHT22;54079;44.540;18.784;2022-12-18T17:43:59;1.00;93.00
55777;DHT22;54079;44.540;18.784;2022-12-18T17:46:27;1.10;93.60